sensor_id;sensor_type;location;lat;lon;timestamp;P1;durP1;ratioP1;P2;durP2;ratioP2
21330;SDS011;10824;51.632;4.950;2023-04-01T00:01:51;0.73;;;0.73;;
21330;SDS011;10824;51.632;4.950;2023-04-01T00:04:18;1.27;;;0.70;;
21330;SDS011;10824;51.632;4.950;2023-04-01T00:06:45;2.03;;;0.80;;
21330;SDS011;10824;51.632;4.950;2023-04-01T00:09:13;1.30;;;1.08;;
21330;SDS011;10824;51.632;4.950;2023-04-01T00:11:41;2.53;;;1.77;;
21330;SDS011;10824;51.632;4.950;2023-04-01T00:14:08;1.00;;;0.90;;
21330;SDS011;10824;51.632;4.950;2023-04-01T00:16:36;2.72;;;1.05;;
21330;SDS011;10824;51.632;4.950;2023-04-01T00:19:03;2.10;;;1.20;;
21330;SDS011;10824;51.632;4.950;2023-04-01T00:21:31;1.02;;;1.02;;
21330;SDS011;10824;51.632;4.950;2023-04-01T00:23:58;2.72;;;1.02;;
21330;SDS011;10824;51.632;4.950;2023-04-01T00:26:26;1.92;;;0.90;;
21330;SDS011;10824;51.632;4.950;2023-04-01T00:28:53;1.98;;;1.20;;
21330;SDS011;10824;51.632;4.950;2023-04-01T00:31:20;1.77;;;0.90;;
21330;SDS011;10824;51.632;4.950;2023-04-01T00:33:47;1.40;;;0.85;;
21330;SDS011;10824;51.632;4.950;2023-04-01T00:36:16;0.80;;;0.70;;
21330;SDS011;10824;51.632;4.950;2023-04-01T00:38:45;2.50;;;0.93;;
21330;SDS011;10824;51.632;4.950;2023-04-01T00:41:13;6.03;;;0.95;;
21330;SDS011;10824;51.632;4.950;2023-04-01T00:43:43;1.10;;;0.60;;
21330;SDS011;10824;51.632;4.950;2023-04-01T00:46:12;2.42;;;0.90;;
21330;SDS011;10824;51.632;4.950;2023-04-01T00:48:41;2.17;;;0.90;;
21330;SDS011;10824;51.632;4.950;2023-04-01T00:51:22;2.47;;;0.80;;
21330;SDS011;10824;51.632;4.950;2023-04-01T00:53:54;0.80;;;0.60;;
21330;SDS011;10824;51.632;4.950;2023-04-01T00:56:36;0.73;;;0.57;;
21330;SDS011;10824;51.632;4.950;2023-04-01T00:59:34;3.13;;;0.98;;
21330;SDS011;10824;51.632;4.950;2023-04-01T01:02:07;1.00;;;0.52;;
21330;SDS011;10824;51.632;4.950;2023-04-01T01:04:37;3.05;;;0.50;;
21330;SDS011;10824;51.632;4.950;2023-04-01T01:18:49;0.77;;;0.60;;
21330;SDS011;10824;51.632;4.950;2023-04-01T01:21:30;1.25;;;0.65;;
21330;SDS011;10824;51.632;4.950;2023-04-01T01:26:44;0.43;;;0.43;;
21330;SDS011;10824;51.632;4.950;2023-04-01T01:29:39;0.95;;;0.68;;
21330;SDS011;10824;51.632;4.950;2023-04-01T01:38:03;0.95;;;0.73;;
21330;SDS011;10824;51.632;4.950;2023-04-01T01:40:36;0.90;;;0.50;;
21330;SDS011;10824;51.632;4.950;2023-04-01T01:43:08;3.33;;;0.60;;
21330;SDS011;10824;51.632;4.950;2023-04-01T01:48:08;1.13;;;0.75;;
21330;SDS011;10824;51.632;4.950;2023-04-01T01:50:37;1.45;;;0.88;;
21330;SDS011;10824;51.632;4.950;2023-04-01T01:53:09;1.10;;;1.00;;
21330;SDS011;10824;51.632;4.950;2023-04-01T01:55:39;2.92;;;0.95;;
21330;SDS011;10824;51.632;4.950;2023-04-01T01:58:12;5.30;;;1.00;;
21330;SDS011;10824;51.632;4.950;2023-04-01T02:00:41;2.95;;;1.73;;
21330;SDS011;10824;51.632;4.950;2023-04-01T02:03:12;2.47;;;1.33;;
21330;SDS011;10824;51.632;4.950;2023-04-01T02:05:41;1.00;;;0.70;;
21330;SDS011;10824;51.632;4.950;2023-04-01T02:10:42;2.35;;;0.63;;
21330;SDS011;10824;51.632;4.950;2023-04-01T02:13:22;1.75;;;0.70;;
21330;SDS011;10824;51.632;4.950;2023-04-01T02:16:17;1.65;;;0.57;;
21330;SDS011;10824;51.632;4.950;2023-04-01T02:18:53;1.77;;;0.50;;
21330;SDS011;10824;51.632;4.950;2023-04-01T02:21:25;0.50;;;0.50;;
21330;SDS011;10824;51.632;4.950;2023-04-01T02:23:57;1.55;;;0.47;;
21330;SDS011;10824;51.632;4.950;2023-04-01T02:26:27;0.80;;;0.80;;
21330;SDS011;10824;51.632;4.950;2023-04-01T02:28:54;0.73;;;0.50;;
21330;SDS011;10824;51.632;4.950;2023-04-01T02:31:24;0.60;;;0.60;;
21330;SDS011;10824;51.632;4.950;2023-04-01T02:33:52;1.00;;;0.55;;
21330;SDS011;10824;51.632;4.950;2023-04-01T02:36:20;1.40;;;1.08;;
21330;SDS011;10824;51.632;4.950;2023-04-01T02:38:48;0.95;;;0.50;;
21330;SDS011;10824;51.632;4.950;2023-04-01T02:41:17;2.67;;;0.60;;
21330;SDS011;10824;51.632;4.950;2023-04-01T02:43:45;0.70;;;0.70;;
21330;SDS011;10824;51.632;4.950;2023-04-01T02:46:13;0.77;;;0.55;;
21330;SDS011;10824;51.632;4.950;2023-04-01T02:48:40;1.38;;;0.60;;
21330;SDS011;10824;51.632;4.950;2023-04-01T02:51:08;4.88;;;1.40;;
21330;SDS011;10824;51.632;4.950;2023-04-01T02:53:35;0.52;;;0.47;;
21330;SDS011;10824;51.632;4.950;2023-04-01T02:56:02;1.52;;;0.80;;
21330;SDS011;10824;51.632;4.950;2023-04-01T02:58:29;1.40;;;0.80;;
21330;SDS011;10824;51.632;4.950;2023-04-01T03:00:56;1.27;;;0.70;;
21330;SDS011;10824;51.632;4.950;2023-04-01T03:03:23;2.83;;;0.80;;
21330;SDS011;10824;51.632;4.950;2023-04-01T03:05:50;1.42;;;0.75;;
21330;SDS011;10824;51.632;4.950;2023-04-01T03:08:18;0.80;;;0.77;;
21330;SDS011;10824;51.632;4.950;2023-04-01T03:10:45;1.27;;;1.10;;
21330;SDS011;10824;51.632;4.950;2023-04-01T03:13:12;2.60;;;0.90;;
21330;SDS011;10824;51.632;4.950;2023-04-01T03:15:39;1.60;;;0.88;;
21330;SDS011;10824;51.632;4.950;2023-04-01T03:18:06;7.57;;;1.10;;
21330;SDS011;10824;51.632;4.950;2023-04-01T03:20:33;2.35;;;1.40;;
21330;SDS011;10824;51.632;4.950;2023-04-01T03:23:00;2.33;;;0.93;;
21330;SDS011;10824;51.632;4.950;2023-04-01T03:25:27;1.13;;;0.77;;
21330;SDS011;10824;51.632;4.950;2023-04-01T03:27:55;3.85;;;1.67;;
21330;SDS011;10824;51.632;4.950;2023-04-01T03:30:22;1.67;;;1.33;;
21330;SDS011;10824;51.632;4.950;2023-04-01T03:32:49;2.20;;;0.93;;
21330;SDS011;10824;51.632;4.950;2023-04-01T03:35:16;2.92;;;1.33;;
21330;SDS011;10824;51.632;4.950;2023-04-01T03:37:44;1.35;;;0.85;;
21330;SDS011;10824;51.632;4.950;2023-04-01T03:40:11;3.10;;;0.90;;
21330;SDS011;10824;51.632;4.950;2023-04-01T03:42:39;4.32;;;1.98;;
21330;SDS011;10824;51.632;4.950;2023-04-01T03:45:06;1.77;;;1.20;;
21330;SDS011;10824;51.632;4.950;2023-04-01T03:47:33;2.20;;;1.98;;
21330;SDS011;10824;51.632;4.950;2023-04-01T03:50:01;1.88;;;0.80;;
21330;SDS011;10824;51.632;4.950;2023-04-01T03:52:28;2.70;;;0.70;;
21330;SDS011;10824;51.632;4.950;2023-04-01T03:54:55;6.03;;;1.30;;
21330;SDS011;10824;51.632;4.950;2023-04-01T03:57:22;4.18;;;2.47;;
21330;SDS011;10824;51.632;4.950;2023-04-01T03:59:50;0.65;;;0.65;;
21330;SDS011;10824;51.632;4.950;2023-04-01T04:02:17;2.78;;;0.98;;
21330;SDS011;10824;51.632;4.950;2023-04-01T04:04:45;0.73;;;0.60;;
21330;SDS011;10824;51.632;4.950;2023-04-01T04:07:13;1.60;;;1.08;;
21330;SDS011;10824;51.632;4.950;2023-04-01T04:10:03;1.30;;;0.60;;
21330;SDS011;10824;51.632;4.950;2023-04-01T04:12:30;0.65;;;0.57;;
21330;SDS011;10824;51.632;4.950;2023-04-01T04:14:57;1.25;;;0.75;;
21330;SDS011;10824;51.632;4.950;2023-04-01T04:17:24;1.00;;;0.82;;
21330;SDS011;10824;51.632;4.950;2023-04-01T04:19:52;1.30;;;1.15;;
21330;SDS011;10824;51.632;4.950;2023-04-01T04:22:20;1.85;;;0.65;;
21330;SDS011;10824;51.632;4.950;2023-04-01T04:24:47;2.15;;;1.17;;
21330;SDS011;10824;51.632;4.950;2023-04-01T04:27:16;1.65;;;1.35;;
21330;SDS011;10824;51.632;4.950;2023-04-01T04:29:53;2.25;;;1.00;;
21330;SDS011;10824;51.632;4.950;2023-04-01T04:32:20;3.05;;;1.17;;
21330;SDS011;10824;51.632;4.950;2023-04-01T04:34:47;4.38;;;1.00;;
21330;SDS011;10824;51.632;4.950;2023-04-01T04:37:15;1.85;;;1.02;;
21330;SDS011;10824;51.632;4.950;2023-04-01T04:39:42;0.93;;;0.80;;
21330;SDS011;10824;51.632;4.950;2023-04-01T04:42:09;1.23;;;1.08;;
21330;SDS011;10824;51.632;4.950;2023-04-01T04:44:36;1.45;;;1.00;;
21330;SDS011;10824;51.632;4.950;2023-04-01T04:47:03;1.00;;;0.80;;
21330;SDS011;10824;51.632;4.950;2023-04-01T04:49:30;1.13;;;0.80;;
21330;SDS011;10824;51.632;4.950;2023-04-01T04:54:29;2.10;;;1.23;;
21330;SDS011;10824;51.632;4.950;2023-04-01T04:56:59;2.00;;;1.40;;
21330;SDS011;10824;51.632;4.950;2023-04-01T04:59:31;1.48;;;1.15;;
21330;SDS011;10824;51.632;4.950;2023-04-01T05:02:09;2.53;;;1.50;;
21330;SDS011;10824;51.632;4.950;2023-04-01T05:04:37;3.25;;;1.25;;
21330;SDS011;10824;51.632;4.950;2023-04-01T05:07:08;4.78;;;2.10;;
21330;SDS011;10824;51.632;4.950;2023-04-01T05:09:35;2.22;;;1.50;;
21330;SDS011;10824;51.632;4.950;2023-04-01T05:12:02;5.28;;;2.00;;
21330;SDS011;10824;51.632;4.950;2023-04-01T05:14:48;4.78;;;2.40;;
21330;SDS011;10824;51.632;4.950;2023-04-01T05:17:15;3.47;;;2.25;;
21330;SDS011;10824;51.632;4.950;2023-04-01T05:19:42;3.58;;;2.42;;
21330;SDS011;10824;51.632;4.950;2023-04-01T05:22:09;5.53;;;3.47;;
21330;SDS011;10824;51.632;4.950;2023-04-01T05:24:38;5.10;;;2.85;;
21330;SDS011;10824;51.632;4.950;2023-04-01T05:27:05;5.25;;;2.53;;
21330;SDS011;10824;51.632;4.950;2023-04-01T05:29:36;5.90;;;3.03;;
21330;SDS011;10824;51.632;4.950;2023-04-01T05:32:06;5.57;;;2.92;;
21330;SDS011;10824;51.632;4.950;2023-04-01T05:34:34;6.20;;;3.60;;
21330;SDS011;10824;51.632;4.950;2023-04-01T05:37:01;9.02;;;3.35;;
21330;SDS011;10824;51.632;4.950;2023-04-01T05:39:28;10.10;;;3.92;;
21330;SDS011;10824;51.632;4.950;2023-04-01T05:41:55;9.63;;;4.75;;
21330;SDS011;10824;51.632;4.950;2023-04-01T05:44:22;9.52;;;4.35;;
21330;SDS011;10824;51.632;4.950;2023-04-01T05:47:02;4.22;;;2.80;;
21330;SDS011;10824;51.632;4.950;2023-04-01T05:49:30;7.72;;;3.55;;
21330;SDS011;10824;51.632;4.950;2023-04-01T05:51:59;11.80;;;3.38;;
21330;SDS011;10824;51.632;4.950;2023-04-01T05:54:27;10.45;;;4.55;;
21330;SDS011;10824;51.632;4.950;2023-04-01T05:56:55;5.15;;;3.45;;
21330;SDS011;10824;51.632;4.950;2023-04-01T05:59:22;8.07;;;4.13;;
21330;SDS011;10824;51.632;4.950;2023-04-01T06:01:50;10.90;;;4.10;;
21330;SDS011;10824;51.632;4.950;2023-04-01T06:04:18;6.97;;;3.28;;
21330;SDS011;10824;51.632;4.950;2023-04-01T06:06:46;7.68;;;3.95;;
21330;SDS011;10824;51.632;4.950;2023-04-01T06:09:14;7.50;;;3.70;;
21330;SDS011;10824;51.632;4.950;2023-04-01T06:17:41;5.88;;;3.63;;
21330;SDS011;10824;51.632;4.950;2023-04-01T06:23:25;5.97;;;3.45;;
21330;SDS011;10824;51.632;4.950;2023-04-01T06:26:03;9.02;;;4.30;;
21330;SDS011;10824;51.632;4.950;2023-04-01T06:28:55;6.40;;;2.85;;
21330;SDS011;10824;51.632;4.950;2023-04-01T06:40:01;10.88;;;3.83;;
21330;SDS011;10824;51.632;4.950;2023-04-01T06:58:19;8.88;;;4.07;;
21330;SDS011;10824;51.632;4.950;2023-04-01T07:00:53;13.73;;;6.40;;
21330;SDS011;10824;51.632;4.950;2023-04-01T07:03:38;9.40;;;3.38;;
21330;SDS011;10824;51.632;4.950;2023-04-01T07:06:13;10.75;;;4.38;;
21330;SDS011;10824;51.632;4.950;2023-04-01T07:08:52;9.07;;;4.30;;
21330;SDS011;10824;51.632;4.950;2023-04-01T07:11:31;24.85;;;5.25;;
21330;SDS011;10824;51.632;4.950;2023-04-01T07:14:35;6.22;;;2.83;;
21330;SDS011;10824;51.632;4.950;2023-04-01T07:17:05;6.40;;;3.33;;
21330;SDS011;10824;51.632;4.950;2023-04-01T07:19:39;8.27;;;5.18;;
21330;SDS011;10824;51.632;4.950;2023-04-01T07:25:11;7.25;;;3.50;;
21330;SDS011;10824;51.632;4.950;2023-04-01T07:27:53;10.65;;;3.95;;
21330;SDS011;10824;51.632;4.950;2023-04-01T07:30:28;8.48;;;4.95;;
21330;SDS011;10824;51.632;4.950;2023-04-01T07:35:54;7.40;;;4.40;;
21330;SDS011;10824;51.632;4.950;2023-04-01T07:44:12;8.65;;;3.92;;
21330;SDS011;10824;51.632;4.950;2023-04-01T07:52:50;8.50;;;3.50;;
21330;SDS011;10824;51.632;4.950;2023-04-01T07:55:29;6.53;;;3.40;;
21330;SDS011;10824;51.632;4.950;2023-04-01T07:58:31;8.98;;;4.28;;
21330;SDS011;10824;51.632;4.950;2023-04-01T08:01:21;7.85;;;3.58;;
21330;SDS011;10824;51.632;4.950;2023-04-01T08:04:14;8.48;;;3.38;;
21330;SDS011;10824;51.632;4.950;2023-04-01T08:07:04;7.32;;;4.40;;
21330;SDS011;10824;51.632;4.950;2023-04-01T08:16:52;11.60;;;5.10;;
21330;SDS011;10824;51.632;4.950;2023-04-01T08:22:18;6.25;;;3.08;;
21330;SDS011;10824;51.632;4.950;2023-04-01T08:24:59;4.97;;;3.67;;
21330;SDS011;10824;51.632;4.950;2023-04-01T08:38:54;13.25;;;5.47;;
21330;SDS011;10824;51.632;4.950;2023-04-01T08:47:54;6.47;;;2.80;;
21330;SDS011;10824;51.632;4.950;2023-04-01T08:54:05;4.93;;;2.60;;
21330;SDS011;10824;51.632;4.950;2023-04-01T09:05:36;3.33;;;1.95;;
21330;SDS011;10824;51.632;4.950;2023-04-01T09:14:26;6.00;;;2.72;;
21330;SDS011;10824;51.632;4.950;2023-04-01T09:22:48;2.60;;;2.08;;
21330;SDS011;10824;51.632;4.950;2023-04-01T09:25:30;4.05;;;2.33;;
21330;SDS011;10824;51.632;4.950;2023-04-01T09:30:38;2.88;;;2.00;;
21330;SDS011;10824;51.632;4.950;2023-04-01T09:36:21;4.68;;;2.33;;
21330;SDS011;10824;51.632;4.950;2023-04-01T09:39:01;3.75;;;2.85;;
21330;SDS011;10824;51.632;4.950;2023-04-01T09:41:57;3.08;;;2.25;;
21330;SDS011;10824;51.632;4.950;2023-04-01T09:44:48;4.05;;;2.72;;
21330;SDS011;10824;51.632;4.950;2023-04-01T10:02:24;7.00;;;3.15;;
21330;SDS011;10824;51.632;4.950;2023-04-01T10:18:11;4.47;;;3.20;;
21330;SDS011;10824;51.632;4.950;2023-04-01T11:21:23;5.07;;;3.58;;
21330;SDS011;10824;51.632;4.950;2023-04-01T11:32:54;5.55;;;3.17;;
21330;SDS011;10824;51.632;4.950;2023-04-01T11:52:58;5.55;;;3.45;;
21330;SDS011;10824;51.632;4.950;2023-04-01T11:58:56;4.38;;;2.70;;
21330;SDS011;10824;51.632;4.950;2023-04-01T12:09:44;5.18;;;2.90;;
21330;SDS011;10824;51.632;4.950;2023-04-01T12:12:32;5.10;;;3.20;;
21330;SDS011;10824;51.632;4.950;2023-04-01T12:21:37;3.90;;;2.00;;
21330;SDS011;10824;51.632;4.950;2023-04-01T12:24:34;3.47;;;2.38;;
21330;SDS011;10824;51.632;4.950;2023-04-01T12:27:11;3.95;;;2.60;;
21330;SDS011;10824;51.632;4.950;2023-04-01T12:29:59;5.10;;;2.88;;
21330;SDS011;10824;51.632;4.950;2023-04-01T12:35:17;7.25;;;3.28;;
21330;SDS011;10824;51.632;4.950;2023-04-01T12:40:38;5.72;;;2.85;;
21330;SDS011;10824;51.632;4.950;2023-04-01T12:49:02;3.83;;;2.38;;
21330;SDS011;10824;51.632;4.950;2023-04-01T13:14:04;5.60;;;2.35;;
21330;SDS011;10824;51.632;4.950;2023-04-01T13:16:58;3.22;;;2.00;;
21330;SDS011;10824;51.632;4.950;2023-04-01T13:25:36;7.13;;;2.53;;
21330;SDS011;10824;51.632;4.950;2023-04-01T13:28:22;5.13;;;2.10;;
21330;SDS011;10824;51.632;4.950;2023-04-01T13:30:55;4.82;;;3.05;;
21330;SDS011;10824;51.632;4.950;2023-04-01T13:33:32;4.55;;;2.42;;
21330;SDS011;10824;51.632;4.950;2023-04-01T13:36:19;5.32;;;3.45;;
21330;SDS011;10824;51.632;4.950;2023-04-01T13:44:50;4.00;;;2.42;;
21330;SDS011;10824;51.632;4.950;2023-04-01T13:47:39;6.25;;;3.38;;
21330;SDS011;10824;51.632;4.950;2023-04-01T13:55:53;5.88;;;2.97;;
21330;SDS011;10824;51.632;4.950;2023-04-01T14:12:44;6.03;;;2.40;;
21330;SDS011;10824;51.632;4.950;2023-04-01T14:15:34;5.72;;;2.40;;
21330;SDS011;10824;51.632;4.950;2023-04-01T14:21:08;4.82;;;2.60;;
21330;SDS011;10824;51.632;4.950;2023-04-01T14:49:36;5.95;;;3.17;;
21330;SDS011;10824;51.632;4.950;2023-04-01T14:52:16;4.10;;;2.35;;
21330;SDS011;10824;51.632;4.950;2023-04-01T14:54:51;4.28;;;2.33;;
21330;SDS011;10824;51.632;4.950;2023-04-01T14:57:27;5.45;;;2.65;;
21330;SDS011;10824;51.632;4.950;2023-04-01T15:00:14;4.15;;;2.15;;
21330;SDS011;10824;51.632;4.950;2023-04-01T15:14:28;5.60;;;3.15;;
21330;SDS011;10824;51.632;4.950;2023-04-01T15:28:27;5.72;;;2.38;;
21330;SDS011;10824;51.632;4.950;2023-04-01T15:31:16;4.50;;;2.47;;
21330;SDS011;10824;51.632;4.950;2023-04-01T15:34:17;4.63;;;2.80;;
21330;SDS011;10824;51.632;4.950;2023-04-01T15:36:59;7.85;;;2.90;;
21330;SDS011;10824;51.632;4.950;2023-04-01T15:47:42;7.15;;;3.33;;
21330;SDS011;10824;51.632;4.950;2023-04-01T16:01:44;4.95;;;3.00;;
21330;SDS011;10824;51.632;4.950;2023-04-01T16:10:57;4.70;;;3.00;;
21330;SDS011;10824;51.632;4.950;2023-04-01T16:16:19;4.90;;;2.40;;
21330;SDS011;10824;51.632;4.950;2023-04-01T16:29:29;4.03;;;2.33;;
21330;SDS011;10824;51.632;4.950;2023-04-01T16:37:52;4.40;;;2.60;;
21330;SDS011;10824;51.632;4.950;2023-04-01T16:43:53;5.13;;;2.20;;
21330;SDS011;10824;51.632;4.950;2023-04-01T16:46:39;4.50;;;2.10;;
21330;SDS011;10824;51.632;4.950;2023-04-01T16:49:52;3.70;;;2.25;;
21330;SDS011;10824;51.632;4.950;2023-04-01T16:55:03;2.13;;;1.13;;
21330;SDS011;10824;51.632;4.950;2023-04-01T17:00:27;3.28;;;2.25;;
21330;SDS011;10824;51.632;4.950;2023-04-01T17:03:04;3.03;;;1.80;;
21330;SDS011;10824;51.632;4.950;2023-04-01T17:13:50;5.45;;;2.55;;
21330;SDS011;10824;51.632;4.950;2023-04-01T17:20:00;5.10;;;2.78;;
21330;SDS011;10824;51.632;4.950;2023-04-01T17:24:51;4.15;;;1.92;;
21330;SDS011;10824;51.632;4.950;2023-04-01T17:28:34;5.68;;;1.98;;
21330;SDS011;10824;51.632;4.950;2023-04-01T17:30:46;6.57;;;3.22;;
21330;SDS011;10824;51.632;4.950;2023-04-01T17:36:10;3.22;;;1.60;;
21330;SDS011;10824;51.632;4.950;2023-04-01T17:44:28;5.13;;;2.53;;
21330;SDS011;10824;51.632;4.950;2023-04-01T17:55:53;1.52;;;1.20;;
21330;SDS011;10824;51.632;4.950;2023-04-01T17:58:28;3.28;;;1.73;;
21330;SDS011;10824;51.632;4.950;2023-04-01T18:07:10;2.38;;;1.40;;
21330;SDS011;10824;51.632;4.950;2023-04-01T18:09:57;4.28;;;2.03;;
21330;SDS011;10824;51.632;4.950;2023-04-01T18:15:31;2.25;;;1.55;;
21330;SDS011;10824;51.632;4.950;2023-04-01T18:24:16;2.13;;;1.63;;
21330;SDS011;10824;51.632;4.950;2023-04-01T18:27:03;2.80;;;1.17;;
21330;SDS011;10824;51.632;4.950;2023-04-01T18:32:28;1.27;;;1.10;;
21330;SDS011;10824;51.632;4.950;2023-04-01T18:35:19;2.33;;;1.75;;
21330;SDS011;10824;51.632;4.950;2023-04-01T18:40:42;1.92;;;1.55;;
21330;SDS011;10824;51.632;4.950;2023-04-01T18:43:30;3.97;;;1.45;;
21330;SDS011;10824;51.632;4.950;2023-04-01T18:46:49;2.63;;;1.15;;
21330;SDS011;10824;51.632;4.950;2023-04-01T18:49:39;3.35;;;1.17;;
21330;SDS011;10824;51.632;4.950;2023-04-01T19:00:26;5.20;;;2.75;;
21330;SDS011;10824;51.632;4.950;2023-04-01T19:05:51;4.30;;;1.73;;
21330;SDS011;10824;51.632;4.950;2023-04-01T19:08:28;2.30;;;1.80;;
21330;SDS011;10824;51.632;4.950;2023-04-01T19:14:19;1.98;;;1.77;;
21330;SDS011;10824;51.632;4.950;2023-04-01T19:16:57;2.72;;;1.50;;
21330;SDS011;10824;51.632;4.950;2023-04-01T19:27:37;2.90;;;2.20;;
21330;SDS011;10824;51.632;4.950;2023-04-01T19:33:25;3.60;;;1.83;;
21330;SDS011;10824;51.632;4.950;2023-04-01T19:35:43;2.13;;;1.40;;
21330;SDS011;10824;51.632;4.950;2023-04-01T19:46:46;3.00;;;1.92;;
21330;SDS011;10824;51.632;4.950;2023-04-01T19:52:05;3.50;;;2.10;;
21330;SDS011;10824;51.632;4.950;2023-04-01T20:05:00;3.53;;;2.40;;
21330;SDS011;10824;51.632;4.950;2023-04-01T20:08:10;3.42;;;2.25;;
21330;SDS011;10824;51.632;4.950;2023-04-01T20:10:42;2.40;;;1.95;;
21330;SDS011;10824;51.632;4.950;2023-04-01T20:16:08;4.07;;;2.25;;
21330;SDS011;10824;51.632;4.950;2023-04-01T20:21:21;5.90;;;2.72;;
21330;SDS011;10824;51.632;4.950;2023-04-01T20:26:25;4.15;;;2.47;;
21330;SDS011;10824;51.632;4.950;2023-04-01T20:37:40;7.45;;;2.05;;
21330;SDS011;10824;51.632;4.950;2023-04-01T20:40:23;3.83;;;2.80;;
21330;SDS011;10824;51.632;4.950;2023-04-01T20:51:54;2.30;;;2.03;;
21330;SDS011;10824;51.632;4.950;2023-04-01T20:57:55;4.38;;;3.17;;
21330;SDS011;10824;51.632;4.950;2023-04-01T21:00:27;3.30;;;1.98;;
21330;SDS011;10824;51.632;4.950;2023-04-01T21:11:24;3.28;;;1.75;;
21330;SDS011;10824;51.632;4.950;2023-04-01T21:16:44;3.55;;;2.03;;
21330;SDS011;10824;51.632;4.950;2023-04-01T21:25:10;3.30;;;2.10;;
21330;SDS011;10824;51.632;4.950;2023-04-01T22:06:52;4.15;;;3.33;;
21330;SDS011;10824;51.632;4.950;2023-04-01T22:09:32;5.47;;;3.43;;
21330;SDS011;10824;51.632;4.950;2023-04-01T22:12:12;8.82;;;3.20;;
21330;SDS011;10824;51.632;4.950;2023-04-01T22:17:11;4.65;;;3.08;;
21330;SDS011;10824;51.632;4.950;2023-04-01T22:19:59;5.53;;;3.33;;
21330;SDS011;10824;51.632;4.950;2023-04-01T22:25:47;7.30;;;2.60;;
21330;SDS011;10824;51.632;4.950;2023-04-01T22:28:26;4.25;;;2.53;;
21330;SDS011;10824;51.632;4.950;2023-04-01T22:31:05;6.70;;;4.00;;
21330;SDS011;10824;51.632;4.950;2023-04-01T22:34:11;4.57;;;3.17;;
21330;SDS011;10824;51.632;4.950;2023-04-01T22:44:28;5.28;;;2.33;;
21330;SDS011;10824;51.632;4.950;2023-04-01T22:49:42;4.22;;;2.58;;
21330;SDS011;10824;51.632;4.950;2023-04-01T22:52:38;3.30;;;2.10;;
21330;SDS011;10824;51.632;4.950;2023-04-01T22:58:00;3.90;;;2.28;;
21330;SDS011;10824;51.632;4.950;2023-04-01T23:00:26;2.53;;;1.50;;
21330;SDS011;10824;51.632;4.950;2023-04-01T23:05:58;4.85;;;2.90;;
21330;SDS011;10824;51.632;4.950;2023-04-01T23:10:55;2.78;;;2.15;;
21330;SDS011;10824;51.632;4.950;2023-04-01T23:13:29;6.15;;;2.67;;
21330;SDS011;10824;51.632;4.950;2023-04-01T23:16:25;4.82;;;2.72;;
21330;SDS011;10824;51.632;4.950;2023-04-01T23:19:13;3.92;;;2.22;;
21330;SDS011;10824;51.632;4.950;2023-04-01T23:22:21;3.00;;;1.83;;
21330;SDS011;10824;51.632;4.950;2023-04-01T23:24:39;4.82;;;3.03;;
21330;SDS011;10824;51.632;4.950;2023-04-01T23:27:19;4.13;;;2.47;;
21330;SDS011;10824;51.632;4.950;2023-04-01T23:30:02;4.57;;;2.53;;
21330;SDS011;10824;51.632;4.950;2023-04-01T23:32:30;3.80;;;2.05;;
21330;SDS011;10824;51.632;4.950;2023-04-01T23:34:57;4.35;;;2.55;;
21330;SDS011;10824;51.632;4.950;2023-04-01T23:37:26;4.60;;;2.60;;
21330;SDS011;10824;51.632;4.950;2023-04-01T23:39:54;4.38;;;2.42;;
21330;SDS011;10824;51.632;4.950;2023-04-01T23:42:27;4.50;;;2.63;;
21330;SDS011;10824;51.632;4.950;2023-04-01T23:45:04;4.85;;;2.92;;
21330;SDS011;10824;51.632;4.950;2023-04-01T23:47:39;6.85;;;2.60;;
21330;SDS011;10824;51.632;4.950;2023-04-01T23:50:14;5.18;;;2.95;;
21330;SDS011;10824;51.632;4.950;2023-04-01T23:52:52;6.28;;;2.95;;
21330;SDS011;10824;51.632;4.950;2023-04-01T23:55:32;3.88;;;1.88;;
